Time;durP1;ratioP1;P1;durP2;ratioP2;P2;SDS_P1;SDS_P2;PMS_P1;PMS_P2;Temp;Humidity;BMP_temperature;BMP_pressure;BME280_temperature;BME280_humidity;BME280_pressure;Samples;Min_cycle;Max_cycle;Signal;HPM_P1;HPM_P2
2022/04/19 00:00:41;;;;;;;8.75;4.75;;;8.40;94.90;;;;;;5007406;28;20042;-65
2022/04/19 00:03:09;;;;;;;6.38;4.50;;;8.30;94.60;;;;;;5006256;28;20060;-66
2022/04/19 00:05:36;;;;;;;7.25;4.75;;;8.30;95.20;;;;;;5005897;28;20049;-66
2022/04/19 00:08:06;;;;;;;5.95;4.22;;;8.30;95.60;;;;;;5005516;28;20108;-66
2022/04/19 00:10:32;;;;;;;4.95;4.45;;;8.30;94.70;;;;;;5005651;28;20081;-66
2022/04/19 00:13:00;;;;;;;9.52;5.75;;;8.30;95.50;;;;;;5007143;28;20057;-66
2022/04/19 00:15:28;;;;;;;6.70;4.82;;;8.30;95.90;;;;;;5006542;28;20141;-66
2022/04/19 00:17:59;;;;;;;5.70;4.60;;;8.20;95.50;;;;;;4987336;28;20053;-66
2022/04/19 00:20:25;;;;;;;6.88;4.68;;;8.10;95.50;;;;;;4987495;28;20050;-66
2022/04/19 00:22:52;;;;;;;8.52;5.45;;;8.00;95.80;;;;;;4985411;28;20105;-65
2022/04/19 00:25:18;;;;;;;7.63;5.30;;;8.00;97.10;;;;;;4987689;28;20559;-66
2022/04/19 00:27:44;;;;;;;8.00;5.13;;;7.90;98.30;;;;;;5001407;28;20050;-65
2022/04/19 00:30:11;;;;;;;8.55;5.65;;;8.00;99.60;;;;;;5007490;28;20036;-66
2022/04/19 00:32:38;;;;;;;6.65;5.07;;;8.00;99.90;;;;;;5005897;28;20053;-66
2022/04/19 00:35:09;;;;;;;6.40;5.47;;;8.10;99.90;;;;;;5006199;28;20042;-65
2022/04/19 00:37:38;;;;;;;8.57;5.07;;;8.10;99.90;;;;;;5004727;28;20475;-66
2022/04/19 00:40:05;;;;;;;8.07;5.80;;;8.10;99.90;;;;;;5006901;28;20038;-66
2022/04/19 00:42:32;;;;;;;7.75;5.20;;;8.10;99.90;;;;;;5005046;28;20054;-65
2022/04/19 00:45:00;;;;;;;5.38;4.65;;;8.10;99.90;;;;;;5004612;28;20037;-66
2022/04/19 00:47:26;;;;;;;7.18;4.78;;;8.10;99.90;;;;;;5007146;28;20060;-66
2022/04/19 00:49:52;;;;;;;7.30;4.93;;;8.10;99.90;;;;;;5005540;28;20038;-66
2022/04/19 00:52:19;;;;;;;4.82;4.43;;;8.10;99.90;;;;;;5005447;28;20077;-66
2022/04/19 00:54:47;;;;;;;6.07;5.15;;;8.10;99.90;;;;;;5004191;28;20046;-65
2022/04/19 00:57:14;;;;;;;10.07;5.70;;;8.10;99.90;;;;;;5005171;28;20065;-66
2022/04/19 00:59:45;;;;;;;8.15;5.55;;;8.00;99.90;;;;;;5004579;28;20328;-66
2022/04/19 01:02:11;;;;;;;6.13;5.10;;;8.00;99.90;;;;;;5004363;28;20124;-66
2022/04/19 01:04:36;;;;;;;7.18;5.28;;;8.00;99.90;;;;;;5005460;28;20125;-66
2022/04/19 01:07:03;;;;;;;7.00;5.20;;;7.90;99.90;;;;;;4972182;28;20046;-65
2022/04/19 01:09:30;;;;;;;7.72;5.63;;;7.90;99.90;;;;;;5005416;28;20077;-66
2022/04/19 01:14:40;;;;;;;5.97;5.07;;;7.80;99.90;;;;;;5005216;28;20057;-65
2022/04/19 01:17:07;;;;;;;9.13;5.15;;;7.80;99.90;;;;;;5005184;28;20052;-66
2022/04/19 01:19:40;;;;;;;5.78;5.03;;;7.80;99.90;;;;;;5005815;28;20064;-66
2022/04/19 01:22:06;;;;;;;7.45;5.65;;;7.80;99.90;;;;;;5006577;28;20129;-65
2022/04/19 01:24:36;;;;;;;6.30;5.07;;;7.70;99.90;;;;;;5006254;28;20132;-65
2022/04/19 01:27:03;;;;;;;9.35;5.50;;;7.70;99.90;;;;;;5008773;28;20076;-66
2022/04/19 01:29:30;;;;;;;6.90;4.95;;;7.60;99.90;;;;;;5009263;28;20121;-66
2022/04/19 01:31:55;;;;;;;5.57;5.00;;;7.60;99.90;;;;;;5008556;28;20496;-66
2022/04/19 01:34:21;;;;;;;5.88;5.00;;;7.60;99.90;;;;;;5009933;28;20045;-66
2022/04/19 01:36:47;;;;;;;7.43;4.95;;;7.60;99.90;;;;;;5009495;28;20096;-65
2022/04/19 01:39:13;;;;;;;8.15;4.88;;;7.60;99.90;;;;;;5009889;28;20471;-65
2022/04/19 01:41:39;;;;;;;7.88;5.05;;;7.60;99.90;;;;;;5007547;28;20046;-66
2022/04/19 01:44:07;;;;;;;9.52;5.38;;;7.60;99.90;;;;;;5020670;28;20049;-65
2022/04/19 01:46:33;;;;;;;8.30;5.35;;;7.60;99.90;;;;;;5029317;28;20566;-65
2022/04/19 01:49:00;;;;;;;7.20;5.22;;;7.50;99.90;;;;;;5027504;28;20438;-66
2022/04/19 01:51:26;;;;;;;10.63;5.40;;;7.60;99.90;;;;;;5029442;28;20123;-66
2022/04/19 01:53:52;;;;;;;8.07;5.68;;;7.60;99.90;;;;;;5021159;28;20050;-65
2022/04/19 01:56:18;;;;;;;8.52;5.85;;;7.50;99.90;;;;;;5010068;28;20504;-66
2022/04/19 01:58:44;;;;;;;7.45;5.60;;;7.50;99.90;;;;;;5008902;28;20034;-65
2022/04/19 02:01:10;;;;;;;8.95;6.00;;;7.50;99.90;;;;;;5009683;28;20048;-65
2022/04/19 02:03:37;;;;;;;7.35;5.80;;;7.50;99.90;;;;;;5007497;28;20061;-66
2022/04/19 02:06:08;;;;;;;10.38;6.18;;;7.40;99.90;;;;;;5009784;28;20072;-65
2022/04/19 02:08:34;;;;;;;8.70;5.70;;;7.40;99.90;;;;;;5008087;28;20400;-65
2022/04/19 02:11:00;;;;;;;9.13;4.95;;;7.30;99.90;;;;;;5007633;28;20034;-66
2022/04/19 02:13:26;;;;;;;8.00;5.43;;;7.30;99.90;;;;;;5009523;28;20038;-66
2022/04/19 02:15:53;;;;;;;11.70;5.70;;;7.30;99.90;;;;;;5008081;28;20539;-65
2022/04/19 02:18:19;;;;;;;10.85;6.03;;;7.30;99.90;;;;;;5008537;28;20053;-65
2022/04/19 02:20:45;;;;;;;8.05;5.85;;;7.20;99.90;;;;;;5007135;28;20092;-65
2022/04/19 02:23:13;;;;;;;11.00;6.40;;;7.20;99.90;;;;;;5007697;28;20034;-66
2022/04/19 02:25:39;;;;;;;8.85;5.10;;;7.20;99.90;;;;;;5008383;28;20101;-66
2022/04/19 02:28:06;;;;;;;11.77;5.57;;;7.20;99.90;;;;;;5007375;28;20049;-66
2022/04/19 02:30:33;;;;;;;7.93;5.40;;;7.20;99.90;;;;;;5009262;28;20060;-65
2022/04/19 02:32:59;;;;;;;11.05;5.97;;;7.10;99.90;;;;;;5008233;28;20064;-65
2022/04/19 02:35:27;;;;;;;11.48;6.40;;;7.10;99.90;;;;;;5008805;28;20125;-66
2022/04/19 02:37:58;;;;;;;9.52;5.70;;;7.10;99.90;;;;;;5007622;28;20128;-66
2022/04/19 02:40:24;;;;;;;;;;;7.10;99.90;;;;;;5009634;28;20180;-66
2022/04/19 02:42:51;;;;;;;8.63;5.65;;;7.10;99.90;;;;;;5008448;28;19929;-66
2022/04/19 02:45:19;;;;;;;8.80;5.68;;;7.10;99.90;;;;;;4990939;28;20058;-65
2022/04/19 02:47:45;;;;;;;15.32;5.57;;;7.10;99.90;;;;;;5008528;28;20054;-66
2022/04/19 02:50:12;;;;;;;14.48;6.20;;;7.10;99.90;;;;;;5008121;28;20709;-65
2022/04/19 02:52:38;;;;;;;9.13;5.47;;;7.10;99.90;;;;;;5008776;28;20173;-65
2022/04/19 02:55:04;;;;;;;8.23;6.10;;;7.10;99.90;;;;;;5007590;28;20077;-65
2022/04/19 02:57:30;;;;;;;12.45;5.80;;;7.10;99.90;;;;;;5008571;28;20072;-66
2022/04/19 02:59:55;;;;;;;9.25;5.50;;;7.10;99.90;;;;;;5007829;28;20041;-65
2022/04/19 03:02:21;;;;;;;11.07;6.07;;;7.10;99.90;;;;;;5008139;28;20413;-65
2022/04/19 03:04:47;;;;;;;11.80;5.43;;;7.10;99.90;;;;;;5008212;28;20042;-65
2022/04/19 03:07:15;;;;;;;12.90;5.97;;;7.10;99.90;;;;;;5005994;28;20333;-65
2022/04/19 03:09:42;;;;;;;13.23;6.22;;;7.10;99.90;;;;;;5007131;28;20151;-65
2022/04/19 03:12:11;;;;;;;9.52;5.57;;;7.10;99.90;;;;;;5006180;28;20529;-65
2022/04/19 03:14:38;;;;;;;9.77;6.00;;;7.00;99.90;;;;;;5007677;28;20443;-65
2022/04/19 03:17:05;;;;;;;10.05;6.18;;;7.00;99.90;;;;;;4987970;28;20044;-65
2022/04/19 03:19:32;;;;;;;12.68;6.57;;;7.10;99.90;;;;;;5006816;28;20496;-65
2022/04/19 03:21:57;;;;;;;10.35;6.22;;;7.00;99.90;;;;;;5006165;28;20081;-65
2022/04/19 03:29:52;;;;;;;10.93;6.10;;;6.90;99.90;;;;;;5007179;28;20111;-65
2022/04/19 03:32:19;;;;;;;15.70;6.90;;;6.80;99.90;;;;;;5005960;28;20042;-66
2022/04/19 03:34:46;;;;;;;13.68;6.50;;;6.80;99.90;;;;;;5006338;28;20049;-66
2022/04/19 03:37:12;;;;;;;10.43;5.75;;;6.80;99.90;;;;;;5007306;28;20488;-66
2022/04/19 03:39:38;;;;;;;10.85;6.50;;;6.70;99.90;;;;;;5005292;28;20061;-66
2022/04/19 03:42:07;;;;;;;14.05;6.82;;;6.70;99.90;;;;;;5007581;28;20046;-66
2022/04/19 03:44:33;;;;;;;13.15;6.47;;;6.70;99.90;;;;;;5006617;28;20421;-66
2022/04/19 03:47:09;;;;;;;12.07;6.57;;;6.70;99.90;;;;;;5006325;28;20184;-66
2022/04/19 03:49:39;;;;;;;12.18;6.63;;;6.60;99.90;;;;;;5006467;28;20053;-66
2022/04/19 03:52:06;;;;;;;13.10;6.75;;;6.60;99.90;;;;;;5006593;28;20515;-66
2022/04/19 03:54:34;;;;;;;10.73;6.68;;;6.50;99.90;;;;;;5006107;28;20050;-66
2022/04/19 03:57:07;;;;;;;13.30;6.47;;;6.50;99.90;;;;;;5007033;28;20050;-66
2022/04/19 03:59:34;;;;;;;9.70;6.40;;;6.40;99.90;;;;;;5006928;28;20365;-66
2022/04/19 04:02:00;;;;;;;14.85;6.43;;;6.40;99.90;;;;;;5006534;28;20069;-65
2022/04/19 04:04:30;;;;;;;11.38;6.60;;;6.50;99.90;;;;;;5021693;28;20042;-65
2022/04/19 04:06:59;;;;;;;15.48;6.68;;;6.40;99.90;;;;;;5007505;28;20057;-66
2022/04/19 04:09:26;;;;;;;15.27;6.00;;;6.40;99.90;;;;;;5006451;28;20041;-66
2022/04/19 04:11:52;;;;;;;11.10;6.47;;;6.30;99.90;;;;;;5007194;28;20046;-66
2022/04/19 04:14:18;;;;;;;9.75;6.28;;;6.30;99.90;;;;;;5005276;28;20929;-66
2022/04/19 04:16:43;;;;;;;10.70;6.10;;;6.30;99.90;;;;;;5005454;28;20156;-66
2022/04/19 04:19:09;;;;;;;13.30;6.63;;;6.30;99.90;;;;;;5006973;28;20121;-66
2022/04/19 04:21:35;;;;;;;10.50;6.43;;;6.20;99.90;;;;;;5006343;28;20037;-66
2022/04/19 04:24:00;;;;;;;11.55;6.10;;;6.20;99.90;;;;;;5006906;28;20933;-66
2022/04/19 04:26:26;;;;;;;10.75;5.72;;;6.20;99.90;;;;;;5006191;28;20064;-66
2022/04/19 04:28:52;;;;;;;10.75;6.07;;;6.10;99.90;;;;;;5005626;28;20089;-65
2022/04/19 04:31:18;;;;;;;9.98;6.25;;;6.10;99.90;;;;;;5005856;28;20593;-65
2022/04/19 04:33:43;;;;;;;12.77;6.10;;;6.00;99.90;;;;;;4988958;28;20159;-66
2022/04/19 04:36:10;;;;;;;13.75;6.95;;;6.00;99.90;;;;;;5005274;28;20049;-66
2022/04/19 04:38:36;;;;;;;14.65;6.80;;;6.00;99.90;;;;;;5004633;28;20459;-65
2022/04/19 04:41:01;;;;;;;15.10;6.80;;;6.00;99.90;;;;;;5020940;28;20045;-66
2022/04/19 04:43:28;;;;;;;12.85;6.70;;;6.10;99.90;;;;;;5004003;28;20049;-66
2022/04/19 04:51:22;;;;;;;17.77;6.38;;;6.30;99.90;;;;;;5003758;28;20467;-66
2022/04/19 04:53:48;;;;;;;16.13;7.00;;;6.30;99.90;;;;;;5005929;28;20054;-66
2022/04/19 04:56:14;;;;;;;9.82;6.70;;;6.30;99.90;;;;;;5004686;28;20034;-66
2022/04/19 04:58:40;;;;;;;12.38;6.43;;;6.30;99.90;;;;;;5004901;28;20064;-66
2022/04/19 05:01:05;;;;;;;10.73;6.80;;;6.40;99.90;;;;;;5006264;28;20120;-65
2022/04/19 05:03:31;;;;;;;11.93;6.80;;;6.50;99.90;;;;;;5014913;28;20049;-66
2022/04/19 05:05:57;;;;;;;10.50;7.32;;;6.60;99.90;;;;;;5021031;28;20061;-65
2022/04/19 05:08:22;;;;;;;14.60;6.35;;;6.60;99.90;;;;;;5007188;28;20037;-65
2022/04/19 05:10:48;;;;;;;10.50;6.07;;;6.70;99.90;;;;;;5008766;28;20504;-66
2022/04/19 05:13:14;;;;;;;9.88;6.03;;;6.70;99.90;;;;;;5033374;28;20483;-66
2022/04/19 05:15:39;;;;;;;13.27;6.95;;;6.80;99.90;;;;;;5027839;28;20171;-65
2022/04/19 05:18:05;;;;;;;12.68;6.50;;;6.80;99.90;;;;;;5011470;28;20088;-66
2022/04/19 05:20:31;;;;;;;11.45;7.03;;;6.90;99.90;;;;;;5009173;28;20076;-65
2022/04/19 05:22:57;;;;;;;17.77;6.75;;;7.00;99.90;;;;;;5007277;28;20038;-65
2022/04/19 05:25:22;;;;;;;10.27;6.45;;;7.10;99.90;;;;;;5008065;28;20042;-66
2022/04/19 05:27:48;;;;;;;9.60;5.82;;;7.20;99.90;;;;;;5003733;28;20112;-64
2022/04/19 05:30:14;;;;;;;11.10;6.22;;;7.20;99.90;;;;;;5007666;28;20052;-65
2022/04/19 05:32:40;;;;;;;10.80;6.45;;;7.30;99.90;;;;;;5017629;28;20088;-65
2022/04/19 05:35:06;;;;;;;10.32;6.15;;;7.40;99.90;;;;;;5026839;28;20052;-65
2022/04/19 05:37:36;;;;;;;12.00;6.78;;;7.60;99.90;;;;;;5007610;28;136699;-65
2022/04/19 05:40:02;;;;;;;;;;;7.60;99.90;;;;;;4997439;28;20181;-65
2022/04/19 05:42:28;;;;;;;12.40;5.45;;;7.80;99.90;;;;;;5029467;28;20019;-65
2022/04/19 05:44:53;;;;;;;11.23;6.43;;;7.90;99.90;;;;;;5021762;28;20038;-65
2022/04/19 05:47:19;;;;;;;9.45;5.85;;;8.00;99.90;;;;;;5009466;28;20508;-65
2022/04/19 05:49:45;;;;;;;11.05;5.97;;;8.10;99.90;;;;;;5008768;28;20050;-65
2022/04/19 05:52:11;;;;;;;10.35;6.28;;;8.20;99.90;;;;;;5008988;28;20049;-65
2022/04/19 05:54:36;;;;;;;11.45;6.13;;;8.20;99.90;;;;;;5008952;28;20459;-66
2022/04/19 05:57:02;;;;;;;14.70;6.57;;;8.20;99.90;;;;;;5008907;28;20049;-65
2022/04/19 05:59:28;;;;;;;13.48;5.82;;;8.20;99.90;;;;;;5008385;28;20044;-65
2022/04/19 06:04:53;;;;;;;14.63;5.53;;;8.40;99.90;;;;;;5009219;28;20050;-65
2022/04/19 06:07:19;;;;;;;8.27;5.68;;;9.00;99.90;;;;;;5009275;28;20046;-65
2022/04/19 06:09:45;;;;;;;10.18;6.03;;;9.40;98.00;;;;;;5008616;28;20479;-65
2022/04/19 06:12:12;;;;;;;13.10;6.82;;;9.30;97.40;;;;;;5009428;28;20404;-65
2022/04/19 06:14:38;;;;;;;17.90;6.70;;;9.10;97.70;;;;;;5009157;28;20050;-65
2022/04/19 06:17:05;;;;;;;9.45;5.90;;;9.10;98.60;;;;;;5009591;28;20076;-65
2022/04/19 06:19:31;;;;;;;8.55;5.57;;;9.10;99.00;;;;;;5008088;28;20133;-65
2022/04/19 06:21:59;;;;;;;10.63;5.85;;;9.30;98.00;;;;;;5007933;28;20049;-65
2022/04/19 06:24:25;;;;;;;9.63;6.05;;;9.60;98.40;;;;;;5006593;28;20488;-65
2022/04/19 06:26:51;;;;;;;8.00;5.65;;;10.00;95.30;;;;;;5005676;28;20046;-65
2022/04/19 06:29:17;;;;;;;9.63;5.93;;;10.50;93.40;;;;;;5008556;28;20049;-65
2022/04/19 06:31:45;;;;;;;11.13;5.47;;;10.70;92.30;;;;;;5005775;28;20068;-65
2022/04/19 06:34:12;;;;;;;9.02;5.72;;;10.50;90.00;;;;;;5009138;28;20125;-65
2022/04/19 06:36:38;;;;;;;9.82;5.85;;;10.20;90.90;;;;;;5006385;28;20041;-65
2022/04/19 06:39:04;;;;;;;9.13;5.22;;;9.90;93.10;;;;;;5008662;28;20188;-65
2022/04/19 06:41:30;;;;;;;10.15;6.53;;;9.80;93.90;;;;;;5007941;28;20054;-64
2022/04/19 06:43:58;;;;;;;8.13;5.35;;;9.80;94.50;;;;;;5022953;28;20042;-65
2022/04/19 06:46:27;;;;;;;9.43;5.53;;;9.70;95.00;;;;;;5007430;28;20045;-65
2022/04/19 06:48:56;;;;;;;8.32;5.82;;;9.70;95.50;;;;;;5007452;28;20135;-65
2022/04/19 06:51:22;;;;;;;9.70;5.05;;;9.70;96.20;;;;;;5007954;28;20038;-65
2022/04/19 06:53:49;;;;;;;9.90;5.13;;;9.80;97.90;;;;;;5005911;28;20045;-65
2022/04/19 06:56:15;;;;;;;9.10;5.50;;;10.00;96.60;;;;;;5008007;28;20034;-65
2022/04/19 06:58:42;;;;;;;8.10;5.40;;;10.10;95.60;;;;;;5006642;28;20061;-65
2022/04/19 07:01:10;;;;;;;10.98;6.53;;;10.20;95.30;;;;;;5007061;28;20058;-65
2022/04/19 07:03:36;;;;;;;12.93;6.35;;;10.40;95.60;;;;;;5007016;28;20811;-65
2022/04/19 07:06:03;;;;;;;6.20;4.82;;;10.60;95.70;;;;;;5001604;28;20034;-65
2022/04/19 07:08:30;;;;;;;10.48;5.38;;;10.80;93.70;;;;;;5006263;28;20393;-65
2022/04/19 07:10:56;;;;;;;10.05;5.22;;;11.10;91.90;;;;;;5006717;28;20511;-66
2022/04/19 07:13:23;;;;;;;6.75;5.00;;;11.20;93.00;;;;;;5006226;28;20045;-65
2022/04/19 07:15:49;;;;;;;9.32;5.13;;;11.50;92.50;;;;;;5007033;28;20512;-65
2022/04/19 07:18:17;;;;;;;9.98;4.57;;;11.80;91.40;;;;;;5008263;28;20120;-65
2022/04/19 07:28:56;;;;;;;4.88;3.47;;;12.40;79.10;;;;;;5027366;28;20041;-65
2022/04/19 07:31:22;;;;;;;3.75;2.92;;;12.50;76.90;;;;;;5022791;28;20074;-65
2022/04/19 07:33:48;;;;;;;6.25;3.30;;;12.60;68.20;;;;;;5005608;28;20045;-65
2022/04/19 07:36:14;;;;;;;2.58;2.40;;;12.70;67.10;;;;;;5006489;28;20444;-65
2022/04/19 07:38:39;;;;;;;5.07;2.83;;;12.60;56.40;;;;;;5005682;28;20049;-65
2022/04/19 07:41:06;;;;;;;3.90;2.88;;;12.70;54.30;;;;;;5005315;28;20053;-65
2022/04/19 07:43:32;;;;;;;3.67;2.47;;;12.70;50.10;;;;;;5006251;28;20053;-65
2022/04/19 07:45:58;;;;;;;3.22;2.53;;;12.80;58.20;;;;;;5006743;28;20456;-65
2022/04/19 07:48:24;;;;;;;3.60;2.78;;;13.00;55.40;;;;;;5021692;28;20045;-65
2022/04/19 07:50:50;;;;;;;7.30;2.47;;;13.10;52.70;;;;;;5004937;28;20042;-65
2022/04/19 07:53:16;;;;;;;4.00;2.63;;;13.30;59.00;;;;;;5021834;28;20108;-65
2022/04/19 07:55:42;;;;;;;1.80;1.70;;;13.40;49.70;;;;;;5006826;28;20551;-65
2022/04/19 07:58:08;;;;;;;2.80;2.05;;;13.60;41.70;;;;;;5005427;28;20054;-65
2022/04/19 08:00:34;;;;;;;2.83;1.73;;;13.70;41.50;;;;;;5006754;28;20077;-65
2022/04/19 08:03:00;;;;;;;1.88;1.60;;;13.90;33.70;;;;;;5006068;28;20033;-65
2022/04/19 08:05:26;;;;;;;1.98;1.85;;;14.10;37.60;;;;;;5007758;28;20468;-65
2022/04/19 08:07:52;;;;;;;2.13;1.48;;;14.00;29.30;;;;;;5006675;28;20088;-65
2022/04/19 08:10:19;;;;;;;1.55;1.42;;;14.00;32.50;;;;;;5007097;28;20042;-65
2022/04/19 08:12:45;;;;;;;1.45;1.35;;;14.10;35.90;;;;;;5021359;28;20124;-65
2022/04/19 08:15:12;;;;;;;1.80;1.45;;;14.20;31.10;;;;;;5006406;28;20049;-65
2022/04/19 08:17:38;;;;;;;2.20;1.40;;;14.30;35.30;;;;;;5005518;28;20064;-66
2022/04/19 08:20:05;;;;;;;2.30;1.80;;;14.30;25.50;;;;;;5006340;28;20065;-66
2022/04/19 08:22:31;;;;;;;1.67;1.52;;;14.30;31.70;;;;;;5004279;28;20866;-66
2022/04/19 08:24:57;;;;;;;3.42;1.92;;;14.40;28.20;;;;;;5004872;28;20208;-65
2022/04/19 08:27:23;;;;;;;4.85;1.58;;;14.40;31.20;;;;;;5006591;28;20046;-66
2022/04/19 08:29:49;;;;;;;1.40;1.30;;;14.50;26.60;;;;;;5004078;28;20123;-65
2022/04/19 08:32:15;;;;;;;6.55;1.60;;;14.60;26.20;;;;;;5005540;28;20108;-66
2022/04/19 08:34:41;;;;;;;1.58;1.42;;;14.60;23.20;;;;;;5005738;28;20077;-66
2022/04/19 08:37:09;;;;;;;1.52;1.42;;;14.70;27.20;;;;;;5005596;28;20120;-65
2022/04/19 08:39:34;;;;;;;4.00;1.50;;;14.90;26.70;;;;;;5005801;28;20049;-65
2022/04/19 08:42:00;;;;;;;1.60;1.50;;;14.80;28.20;;;;;;5005003;28;20605;-66
2022/04/19 08:44:26;;;;;;;2.85;1.45;;;14.90;25.00;;;;;;5005522;28;20046;-66
2022/04/19 08:46:57;;;;;;;1.52;1.20;;;15.00;25.60;;;;;;5006365;28;20449;-66
2022/04/19 08:49:25;;;;;;;1.70;1.33;;;15.00;22.60;;;;;;5006184;28;20057;-66
2022/04/19 08:51:51;;;;;;;2.30;1.65;;;14.90;25.00;;;;;;5006306;28;20416;-66
2022/04/19 08:59:45;;;;;;;12.77;1.58;;;15.20;26.30;;;;;;5005461;28;20539;-65
2022/04/19 09:02:23;;;;;;;1.80;1.70;;;15.30;27.80;;;;;;5004281;28;20058;-65
2022/04/19 09:04:52;;;;;;;9.18;2.10;;;15.30;24.40;;;;;;5006109;28;21409;-66
2022/04/19 09:07:19;;;;;;;2.15;1.70;;;15.40;27.80;;;;;;5004627;28;20042;-66
2022/04/19 09:09:59;;;;;;;3.35;1.90;;;15.40;27.70;;;;;;5020862;28;20053;-66
2022/04/19 09:12:24;;;;;;;1.90;1.60;;;15.50;26.70;;;;;;5005785;28;20483;-66
2022/04/19 09:15:03;;;;;;;5.53;1.90;;;15.60;22.60;;;;;;5005098;28;20100;-66
2022/04/19 09:17:32;;;;;;;2.47;1.57;;;15.50;22.70;;;;;;5005818;28;20046;-66
2022/04/19 09:20:11;;;;;;;2.17;1.60;;;15.50;23.40;;;;;;5005050;28;20526;-66
2022/04/19 09:22:37;;;;;;;1.50;1.40;;;15.40;26.80;;;;;;5015169;28;20052;-66
2022/04/19 09:25:20;;;;;;;2.83;1.63;;;15.40;25.80;;;;;;4989662;28;20041;-66
2022/04/19 09:27:47;;;;;;;4.47;1.83;;;15.60;25.90;;;;;;5015793;28;20550;-66
2022/04/19 09:30:21;;;;;;;2.58;2.10;;;15.50;23.70;;;;;;5024880;28;20089;-66
2022/04/19 09:32:59;;;;;;;4.32;1.90;;;15.50;23.00;;;;;;5009240;28;20052;-66
2022/04/19 09:35:40;;;;;;;1.98;1.85;;;15.80;28.80;;;;;;5005286;28;20050;-67
2022/04/19 09:38:08;;;;;;;4.22;2.30;;;16.00;20.00;;;;;;5003895;28;20049;-66
2022/04/19 09:40:38;;;;;;;1.70;1.60;;;16.10;23.20;;;;;;5004193;28;20507;-67
2022/04/19 09:43:11;;;;;;;2.20;1.95;;;16.10;18.60;;;;;;5012580;28;20041;-66
2022/04/19 09:46:02;;;;;;;3.80;2.50;;;16.00;20.20;;;;;;5006512;28;20669;-66
2022/04/19 09:48:30;;;;;;;2.80;2.00;;;15.80;20.50;;;;;;5010595;28;20843;-66
2022/04/19 09:51:02;;;;;;;2.65;2.25;;;16.00;20.10;;;;;;5007800;28;20469;-66
2022/04/19 09:53:30;;;;;;;2.92;2.25;;;16.20;21.90;;;;;;5007805;28;20876;-66
2022/04/19 09:55:58;;;;;;;2.05;1.90;;;16.20;21.20;;;;;;5009198;28;20096;-66
2022/04/19 09:58:25;;;;;;;2.38;2.00;;;16.20;24.60;;;;;;5008644;28;20132;-66
2022/04/19 10:00:51;;;;;;;2.35;1.95;;;16.40;24.30;;;;;;5007929;28;20042;-67
2022/04/19 10:08:51;;;;;;;3.50;2.08;;;16.30;18.00;;;;;;5007971;28;20042;-66
2022/04/19 10:11:17;;;;;;;1.92;1.58;;;16.30;18.60;;;;;;5001168;28;20100;-67
2022/04/19 10:13:44;;;;;;;5.00;2.42;;;16.30;18.10;;;;;;5008753;28;20050;-66
2022/04/19 10:16:12;;;;;;;6.15;1.92;;;16.40;25.50;;;;;;5008804;28;20104;-66
2022/04/19 10:18:39;;;;;;;4.55;1.45;;;16.50;20.60;;;;;;5008914;28;20392;-66
2022/04/19 10:21:09;;;;;;;5.70;1.65;;;16.40;16.30;;;;;;5008638;28;20054;-66
2022/04/19 10:23:40;;;;;;;4.75;1.63;;;16.50;20.70;;;;;;5006845;28;20125;-66
2022/04/19 10:26:16;;;;;;;4.78;1.77;;;16.60;18.40;;;;;;5008698;28;20400;-66
2022/04/19 10:28:42;;;;;;;2.45;1.55;;;16.60;21.10;;;;;;5008463;28;20550;-66
2022/04/19 10:31:09;;;;;;;2.15;1.65;;;16.70;21.60;;;;;;5007251;28;20088;-66
2022/04/19 10:33:38;;;;;;;2.15;1.95;;;16.70;17.80;;;;;;5008019;28;20034;-66
2022/04/19 10:36:22;;;;;;;5.65;1.60;;;16.80;18.80;;;;;;5007747;28;20128;-66
2022/04/19 10:39:13;;;;;;;6.10;1.83;;;16.70;19.80;;;;;;5007824;28;20054;-68
2022/04/19 10:42:05;;;;;;;4.53;1.95;;;16.60;17.20;;;;;;5007157;28;20052;-66
2022/04/19 10:44:43;;;;;;;2.15;1.95;;;16.60;21.90;;;;;;5008779;28;20057;-66
2022/04/19 10:47:14;;;;;;;4.88;2.00;;;16.80;21.80;;;;;;5007641;28;20507;-66
2022/04/19 10:49:57;;;;;;;1.90;1.70;;;16.70;22.10;;;;;;5023098;28;20431;-66
2022/04/19 10:52:43;;;;;;;3.15;2.03;;;16.80;25.00;;;;;;5006043;28;20045;-66
2022/04/19 10:55:19;;;;;;;1.88;1.73;;;16.70;21.60;;;;;;5007266;28;20088;-66
2022/04/19 11:00:34;;;;;;;3.45;1.98;;;16.70;22.30;;;;;;5008125;28;20053;-66
2022/04/19 11:03:05;;;;;;;7.10;2.30;;;16.90;22.60;;;;;;5007099;28;20591;-66
2022/04/19 11:05:41;;;;;;;1.88;1.77;;;17.00;24.30;;;;;;5008269;28;20169;-66
2022/04/19 11:08:19;;;;;;;1.92;1.48;;;17.00;21.20;;;;;;5007842;28;20152;-66
2022/04/19 11:10:45;;;;;;;2.75;1.85;;;17.00;22.90;;;;;;5007983;28;20116;-66
2022/04/19 11:13:14;;;;;;;6.90;1.67;;;16.90;20.80;;;;;;5007673;28;20046;-66
2022/04/19 11:15:42;;;;;;;4.17;1.50;;;17.00;23.50;;;;;;5002383;28;20126;-66
2022/04/19 11:18:27;;;;;;;1.88;1.40;;;16.90;21.90;;;;;;5002328;28;20289;-66
2022/04/19 11:20:57;;;;;;;3.45;1.60;;;16.90;23.70;;;;;;5009850;28;20380;-66
2022/04/19 11:23:25;;;;;;;2.88;1.85;;;16.90;24.00;;;;;;5016529;28;20042;-67
2022/04/19 11:25:53;;;;;;;6.78;1.70;;;17.00;22.70;;;;;;5006991;28;20069;-67
2022/04/19 11:28:27;;;;;;;1.42;1.30;;;16.90;21.90;;;;;;4986152;28;20046;-67
2022/04/19 11:30:56;;;;;;;1.70;1.60;;;16.90;26.10;;;;;;4986522;28;20133;-67
2022/04/19 11:33:23;;;;;;;3.50;1.50;;;17.00;25.60;;;;;;5000568;28;20045;-67
2022/04/19 11:36:20;;;;;;;1.92;1.60;;;16.90;23.50;;;;;;5007147;28;20139;-67
2022/04/19 11:38:48;;;;;;;1.50;1.40;;;16.90;23.50;;;;;;4992621;28;20061;-66
2022/04/19 11:46:57;;;;;;;2.05;1.40;;;17.00;25.40;;;;;;5005969;28;20436;-67
2022/04/19 11:49:24;;;;;;;7.15;1.58;;;17.00;26.50;;;;;;5006309;28;20447;-67
2022/04/19 11:52:01;;;;;;;1.40;1.30;;;16.90;26.70;;;;;;5004241;28;20121;-67
2022/04/19 11:54:28;;;;;;;1.40;1.17;;;16.90;24.20;;;;;;5007054;28;20488;-67
2022/04/19 11:56:59;;;;;;;3.35;1.30;;;17.10;18.90;;;;;;5006557;28;20099;-67
2022/04/19 11:59:27;;;;;;;3.38;1.67;;;17.10;18.20;;;;;;5006427;28;20528;-67
2022/04/19 12:01:54;;;;;;;1.48;1.38;;;17.10;18.00;;;;;;5001651;28;20068;-67
2022/04/19 12:04:20;;;;;;;5.10;1.85;;;17.20;18.30;;;;;;4985634;28;20049;-67
2022/04/19 12:06:48;;;;;;;1.67;1.50;;;17.10;17.60;;;;;;4987363;28;20042;-67
2022/04/19 12:09:17;;;;;;;2.50;1.60;;;17.30;20.00;;;;;;4985441;28;20046;-68
2022/04/19 12:11:43;;;;;;;3.65;1.88;;;17.40;16.80;;;;;;5001738;28;20500;-67
2022/04/19 12:14:09;;;;;;;2.03;1.83;;;17.30;19.80;;;;;;4985484;28;20061;-67
2022/04/19 12:16:37;;;;;;;5.72;2.10;;;17.40;24.30;;;;;;5002706;28;20041;-67
2022/04/19 12:19:08;;;;;;;2.80;2.00;;;17.50;18.80;;;;;;5004854;28;20125;-67
2022/04/19 12:21:45;;;;;;;3.70;2.03;;;17.60;22.70;;;;;;5005824;28;20117;-67
2022/04/19 12:24:19;;;;;;;3.97;1.90;;;17.70;23.90;;;;;;5006904;28;20054;-67
2022/04/19 12:27:05;;;;;;;2.22;1.70;;;17.70;19.80;;;;;;5006504;28;20050;-67
2022/04/19 12:29:32;;;;;;;3.10;2.03;;;17.60;19.40;;;;;;5006622;28;20123;-67
2022/04/19 12:32:02;;;;;;;2.10;1.83;;;17.50;19.90;;;;;;5000528;28;20069;-67
2022/04/19 12:34:35;;;;;;;2.72;2.05;;;17.40;22.00;;;;;;4986639;28;20516;-67
2022/04/19 12:37:21;;;;;;;1.90;1.80;;;17.40;23.60;;;;;;4989660;28;20146;-67
2022/04/19 12:39:58;;;;;;;2.80;1.88;;;17.40;20.60;;;;;;5006085;28;20060;-67
2022/04/19 12:42:25;;;;;;;2.28;1.90;;;17.50;22.30;;;;;;5006166;28;20083;-68
2022/04/19 12:45:08;;;;;;;5.35;2.63;;;17.60;21.00;;;;;;5005062;28;20131;-67
2022/04/19 12:47:34;;;;;;;2.25;2.13;;;17.60;20.50;;;;;;5006278;28;20061;-67
2022/04/19 12:50:15;;;;;;;2.65;2.22;;;17.50;18.40;;;;;;5011414;28;20046;-68
2022/04/19 12:52:41;;;;;;;8.70;2.30;;;17.30;18.60;;;;;;5005910;28;20054;-66
2022/04/19 12:55:11;;;;;;;2.30;2.10;;;17.30;20.30;;;;;;5021168;28;20303;-66
2022/04/19 12:57:41;;;;;;;3.78;2.40;;;17.20;25.50;;;;;;5005027;28;20476;-64
2022/04/19 13:00:09;;;;;;;6.30;2.40;;;17.40;22.90;;;;;;5004480;28;20249;-64
2022/04/19 13:02:41;;;;;;;2.50;2.33;;;17.50;19.30;;;;;;5006167;28;20049;-64
2022/04/19 13:05:07;;;;;;;4.63;2.47;;;17.50;20.60;;;;;;5004926;28;20140;-64
2022/04/19 13:13:05;;;;;;;3.22;2.53;;;17.70;19.50;;;;;;5025393;28;20084;-64
2022/04/19 13:15:35;;;;;;;3.10;2.80;;;17.70;21.20;;;;;;5002050;28;20045;-64
2022/04/19 13:18:02;;;;;;;3.63;2.50;;;17.80;22.60;;;;;;4976312;28;20055;-64
2022/04/19 13:20:28;;;;;;;7.90;3.30;;;17.70;20.50;;;;;;5001932;28;20042;-63
2022/04/19 13:22:54;;;;;;;2.70;2.42;;;17.70;19.00;;;;;;5008207;28;20108;-64
2022/04/19 13:25:20;;;;;;;3.90;3.22;;;17.50;20.10;;;;;;5010073;28;20159;-64
2022/04/19 13:27:50;;;;;;;3.80;2.58;;;17.30;21.80;;;;;;5008725;28;20046;-64
2022/04/19 13:30:19;;;;;;;2.60;2.40;;;17.30;18.30;;;;;;5009371;28;20050;-64
2022/04/19 13:32:46;;;;;;;4.65;2.30;;;17.30;19.50;;;;;;5010226;28;20054;-64
2022/04/19 13:35:12;;;;;;;3.95;2.42;;;17.10;20.30;;;;;;5008690;28;20041;-64
2022/04/19 13:40:22;;;;;;;3.03;2.67;;;17.20;20.00;;;;;;5009098;28;20129;-64
2022/04/19 13:42:49;;;;;;;5.07;2.58;;;17.30;19.90;;;;;;5007647;28;20471;-64
2022/04/19 13:45:17;;;;;;;3.63;2.90;;;17.40;22.90;;;;;;5008577;28;20045;-64
2022/04/19 13:47:43;;;;;;;3.90;2.65;;;17.50;22.60;;;;;;5009067;28;20041;-64